sensor_id;sensor_type;location;lat;lon;timestamp;noise_LAeq;noise_LA_min;noise_LA_max;noise_LA01;noise_LA95
72415;Laerm;60995;52.154;4.498;2023-08-20T00:00:31;44.18;37.18;52.66;;
72415;Laerm;60995;52.154;4.498;2023-08-20T00:02:59;42.62;35.55;52.89;;
72415;Laerm;60995;52.154;4.498;2023-08-20T00:05:19;42.25;35.74;52.12;;
72415;Laerm;60995;52.154;4.498;2023-08-20T00:07:36;43.19;36.28;52.24;;
72415;Laerm;60995;52.154;4.498;2023-08-20T00:09:52;46.65;35.47;61.77;;
72415;Laerm;60995;52.154;4.498;2023-08-20T00:12:08;46.74;35.71;64.10;;
72415;Laerm;60995;52.154;4.498;2023-08-20T00:14:57;43.02;35.84;55.18;;
72415;Laerm;60995;52.154;4.498;2023-08-20T00:17:23;42.37;34.84;52.77;;
72415;Laerm;60995;52.154;4.498;2023-08-20T00:19:43;41.89;35.61;52.55;;
72415;Laerm;60995;52.154;4.498;2023-08-20T00:22:00;44.06;34.78;62.60;;
72415;Laerm;60995;52.154;4.498;2023-08-20T00:24:16;41.76;34.25;53.05;;
72415;Laerm;60995;52.154;4.498;2023-08-20T00:26:33;43.44;34.60;52.43;;
72415;Laerm;60995;52.154;4.498;2023-08-20T00:28:50;42.79;36.43;52.57;;
72415;Laerm;60995;52.154;4.498;2023-08-20T00:31:06;42.56;35.63;51.84;;
72415;Laerm;60995;52.154;4.498;2023-08-20T00:33:23;42.43;34.28;52.39;;
72415;Laerm;60995;52.154;4.498;2023-08-20T00:35:39;43.42;36.18;52.44;;
72415;Laerm;60995;52.154;4.498;2023-08-20T00:37:55;42.20;34.92;52.18;;
72415;Laerm;60995;52.154;4.498;2023-08-20T00:40:12;42.87;34.92;52.37;;
72415;Laerm;60995;52.154;4.498;2023-08-20T00:42:28;43.00;34.42;52.53;;
72415;Laerm;60995;52.154;4.498;2023-08-20T00:44:46;43.11;34.55;53.15;;
72415;Laerm;60995;52.154;4.498;2023-08-20T00:47:04;42.26;34.76;52.45;;
72415;Laerm;60995;52.154;4.498;2023-08-20T00:49:21;44.51;34.50;57.36;;
72415;Laerm;60995;52.154;4.498;2023-08-20T00:51:38;42.34;34.24;53.17;;
72415;Laerm;60995;52.154;4.498;2023-08-20T00:53:55;43.13;34.62;54.04;;
72415;Laerm;60995;52.154;4.498;2023-08-20T00:56:11;42.35;34.60;52.17;;
72415;Laerm;60995;52.154;4.498;2023-08-20T00:58:28;43.34;34.22;58.81;;
72415;Laerm;60995;52.154;4.498;2023-08-20T01:00:44;43.69;34.77;57.02;;
72415;Laerm;60995;52.154;4.498;2023-08-20T01:03:00;41.68;34.96;52.10;;
72415;Laerm;60995;52.154;4.498;2023-08-20T01:05:17;42.93;34.27;52.26;;
72415;Laerm;60995;52.154;4.498;2023-08-20T01:08:12;41.04;33.99;51.83;;
72415;Laerm;60995;52.154;4.498;2023-08-20T01:11:05;43.69;34.29;59.45;;
72415;Laerm;60995;52.154;4.498;2023-08-20T01:13:23;43.92;35.73;52.45;;
72415;Laerm;60995;52.154;4.498;2023-08-20T01:15:39;41.69;34.20;51.72;;
72415;Laerm;60995;52.154;4.498;2023-08-20T01:17:55;42.45;34.54;54.62;;
72415;Laerm;60995;52.154;4.498;2023-08-20T01:20:13;48.09;34.25;66.55;;
72415;Laerm;60995;52.154;4.498;2023-08-20T01:28:29;41.35;34.60;52.94;;
72415;Laerm;60995;52.154;4.498;2023-08-20T01:30:46;42.63;34.55;52.31;;
72415;Laerm;60995;52.154;4.498;2023-08-20T01:33:04;41.89;34.64;52.27;;
72415;Laerm;60995;52.154;4.498;2023-08-20T01:35:24;41.18;34.14;51.70;;
72415;Laerm;60995;52.154;4.498;2023-08-20T01:37:42;42.00;34.25;51.90;;
72415;Laerm;60995;52.154;4.498;2023-08-20T01:39:58;43.10;34.20;54.01;;
72415;Laerm;60995;52.154;4.498;2023-08-20T01:42:14;42.82;35.75;52.39;;
72415;Laerm;60995;52.154;4.498;2023-08-20T01:44:30;41.99;34.47;52.09;;
72415;Laerm;60995;52.154;4.498;2023-08-20T01:46:46;41.16;33.90;51.90;;
72415;Laerm;60995;52.154;4.498;2023-08-20T01:49:03;42.37;34.16;51.75;;
72415;Laerm;60995;52.154;4.498;2023-08-20T01:51:19;41.12;34.30;52.83;;
72415;Laerm;60995;52.154;4.498;2023-08-20T01:53:35;41.90;34.49;52.54;;
72415;Laerm;60995;52.154;4.498;2023-08-20T01:55:52;41.08;34.15;51.72;;
72415;Laerm;60995;52.154;4.498;2023-08-20T01:58:08;41.89;34.43;50.98;;
72415;Laerm;60995;52.154;4.498;2023-08-20T02:00:24;41.44;34.35;51.43;;
72415;Laerm;60995;52.154;4.498;2023-08-20T02:02:41;43.29;34.60;56.77;;
72415;Laerm;60995;52.154;4.498;2023-08-20T02:04:57;41.37;34.47;51.73;;
72415;Laerm;60995;52.154;4.498;2023-08-20T02:07:13;42.75;34.69;52.51;;
72415;Laerm;60995;52.154;4.498;2023-08-20T02:09:30;41.47;34.38;52.21;;
72415;Laerm;60995;52.154;4.498;2023-08-20T02:11:46;42.11;34.78;52.76;;
72415;Laerm;60995;52.154;4.498;2023-08-20T02:14:03;43.18;34.94;51.38;;
72415;Laerm;60995;52.154;4.498;2023-08-20T02:16:19;42.15;34.77;51.40;;
72415;Laerm;60995;52.154;4.498;2023-08-20T02:18:35;43.75;34.74;57.73;;
72415;Laerm;60995;52.154;4.498;2023-08-20T02:20:51;41.89;34.54;52.15;;
72415;Laerm;60995;52.154;4.498;2023-08-20T02:23:08;41.32;34.64;51.60;;
72415;Laerm;60995;52.154;4.498;2023-08-20T02:25:24;41.17;34.38;52.21;;
72415;Laerm;60995;52.154;4.498;2023-08-20T02:27:40;41.39;34.47;51.34;;
72415;Laerm;60995;52.154;4.498;2023-08-20T02:29:57;42.07;34.95;53.52;;
72415;Laerm;60995;52.154;4.498;2023-08-20T02:32:13;42.79;34.80;57.53;;
72415;Laerm;60995;52.154;4.498;2023-08-20T02:34:29;42.82;34.53;53.97;;
72415;Laerm;60995;52.154;4.498;2023-08-20T02:36:46;42.42;35.69;52.22;;
72415;Laerm;60995;52.154;4.498;2023-08-20T02:39:02;41.73;35.04;51.93;;
72415;Laerm;60995;52.154;4.498;2023-08-20T02:41:21;42.24;35.52;51.48;;
72415;Laerm;60995;52.154;4.498;2023-08-20T02:43:37;41.99;34.90;52.18;;
72415;Laerm;60995;52.154;4.498;2023-08-20T02:45:53;41.80;34.66;51.50;;
72415;Laerm;60995;52.154;4.498;2023-08-20T02:48:11;42.81;36.12;53.05;;
72415;Laerm;60995;52.154;4.498;2023-08-20T02:50:28;42.84;36.12;51.48;;
72415;Laerm;60995;52.154;4.498;2023-08-20T02:52:45;42.61;34.89;51.73;;
72415;Laerm;60995;52.154;4.498;2023-08-20T02:55:01;42.47;35.77;55.51;;
72415;Laerm;60995;52.154;4.498;2023-08-20T02:57:20;42.65;35.42;52.00;;
72415;Laerm;60995;52.154;4.498;2023-08-20T02:59:37;43.54;36.10;51.95;;
72415;Laerm;60995;52.154;4.498;2023-08-20T03:01:53;41.97;35.02;51.80;;
72415;Laerm;60995;52.154;4.498;2023-08-20T03:04:09;43.58;36.00;52.32;;
72415;Laerm;60995;52.154;4.498;2023-08-20T03:06:26;41.94;35.80;50.75;;
72415;Laerm;60995;52.154;4.498;2023-08-20T03:08:42;41.52;34.65;53.17;;
72415;Laerm;60995;52.154;4.498;2023-08-20T03:10:58;41.76;35.32;52.77;;
72415;Laerm;60995;52.154;4.498;2023-08-20T03:13:15;42.35;35.78;55.96;;
72415;Laerm;60995;52.154;4.498;2023-08-20T03:15:31;44.03;35.45;65.46;;
72415;Laerm;60995;52.154;4.498;2023-08-20T03:17:47;42.89;34.69;56.98;;
72415;Laerm;60995;52.154;4.498;2023-08-20T03:20:04;42.63;35.48;57.61;;
72415;Laerm;60995;52.154;4.498;2023-08-20T03:22:23;43.10;35.38;58.10;;
72415;Laerm;60995;52.154;4.498;2023-08-20T03:24:39;43.06;35.03;58.14;;
72415;Laerm;60995;52.154;4.498;2023-08-20T03:26:56;42.31;35.32;53.60;;
72415;Laerm;60995;52.154;4.498;2023-08-20T03:29:12;43.48;35.57;52.47;;
72415;Laerm;60995;52.154;4.498;2023-08-20T03:31:28;43.10;36.36;53.33;;
72415;Laerm;60995;52.154;4.498;2023-08-20T03:33:45;49.63;35.43;73.39;;
72415;Laerm;60995;52.154;4.498;2023-08-20T03:36:01;43.45;36.66;51.27;;
72415;Laerm;60995;52.154;4.498;2023-08-20T03:38:17;43.09;36.53;56.43;;
72415;Laerm;60995;52.154;4.498;2023-08-20T03:40:33;44.56;36.07;59.07;;
72415;Laerm;60995;52.154;4.498;2023-08-20T03:42:50;42.51;36.06;55.84;;
72415;Laerm;60995;52.154;4.498;2023-08-20T03:45:06;43.12;35.56;60.64;;
72415;Laerm;60995;52.154;4.498;2023-08-20T03:47:23;42.38;35.84;57.41;;
72415;Laerm;60995;52.154;4.498;2023-08-20T03:49:39;45.08;36.35;67.04;;
72415;Laerm;60995;52.154;4.498;2023-08-20T03:51:55;46.54;36.41;71.88;;
72415;Laerm;60995;52.154;4.498;2023-08-20T03:54:12;44.68;36.38;58.02;;
72415;Laerm;60995;52.154;4.498;2023-08-20T03:56:28;46.96;36.25;70.74;;
72415;Laerm;60995;52.154;4.498;2023-08-20T03:58:45;46.57;36.87;62.06;;
72415;Laerm;60995;52.154;4.498;2023-08-20T04:01:01;44.29;35.84;62.52;;
72415;Laerm;60995;52.154;4.498;2023-08-20T04:03:19;44.78;35.48;61.92;;
72415;Laerm;60995;52.154;4.498;2023-08-20T04:05:37;44.63;35.90;59.13;;
72415;Laerm;60995;52.154;4.498;2023-08-20T04:07:53;43.29;36.58;57.99;;
72415;Laerm;60995;52.154;4.498;2023-08-20T04:10:09;43.57;35.64;64.00;;
72415;Laerm;60995;52.154;4.498;2023-08-20T04:12:26;44.40;35.74;71.88;;
72415;Laerm;60995;52.154;4.498;2023-08-20T04:14:42;42.91;35.86;53.02;;
72415;Laerm;60995;52.154;4.498;2023-08-20T04:16:58;42.95;35.76;54.44;;
72415;Laerm;60995;52.154;4.498;2023-08-20T04:19:14;44.82;36.57;61.87;;
72415;Laerm;60995;52.154;4.498;2023-08-20T04:21:31;42.83;36.09;56.39;;
72415;Laerm;60995;52.154;4.498;2023-08-20T04:23:47;43.05;36.33;52.88;;
72415;Laerm;60995;52.154;4.498;2023-08-20T04:26:03;43.44;36.36;53.74;;
72415;Laerm;60995;52.154;4.498;2023-08-20T04:28:20;44.53;35.93;53.42;;
72415;Laerm;60995;52.154;4.498;2023-08-20T04:30:36;43.66;36.64;53.73;;
72415;Laerm;60995;52.154;4.498;2023-08-20T04:32:53;42.40;35.61;51.69;;
72415;Laerm;60995;52.154;4.498;2023-08-20T04:35:09;42.79;35.37;55.82;;
72415;Laerm;60995;52.154;4.498;2023-08-20T04:37:26;43.67;36.29;54.32;;
72415;Laerm;60995;52.154;4.498;2023-08-20T04:39:42;44.41;37.00;52.80;;
72415;Laerm;60995;52.154;4.498;2023-08-20T04:41:58;43.59;35.82;53.73;;
72415;Laerm;60995;52.154;4.498;2023-08-20T04:44:16;44.41;36.27;55.76;;
72415;Laerm;60995;52.154;4.498;2023-08-20T04:46:32;43.25;36.41;54.89;;
72415;Laerm;60995;52.154;4.498;2023-08-20T04:48:48;42.66;35.71;52.57;;
72415;Laerm;60995;52.154;4.498;2023-08-20T04:51:05;43.80;35.99;54.22;;
72415;Laerm;60995;52.154;4.498;2023-08-20T04:53:21;44.15;36.23;55.98;;
72415;Laerm;60995;52.154;4.498;2023-08-20T04:55:38;44.29;36.75;54.56;;
72415;Laerm;60995;52.154;4.498;2023-08-20T04:57:54;43.27;36.69;53.25;;
72415;Laerm;60995;52.154;4.498;2023-08-20T05:00:11;44.80;35.46;63.59;;
72415;Laerm;60995;52.154;4.498;2023-08-20T05:02:27;43.49;36.44;53.87;;
72415;Laerm;60995;52.154;4.498;2023-08-20T05:04:44;43.93;35.35;52.83;;
72415;Laerm;60995;52.154;4.498;2023-08-20T05:07:00;43.06;36.21;59.36;;
72415;Laerm;60995;52.154;4.498;2023-08-20T05:09:16;44.06;35.75;55.12;;
72415;Laerm;60995;52.154;4.498;2023-08-20T05:11:32;43.22;35.96;53.59;;
72415;Laerm;60995;52.154;4.498;2023-08-20T05:13:50;45.20;37.68;53.80;;
72415;Laerm;60995;52.154;4.498;2023-08-20T05:16:06;42.95;35.39;51.24;;
72415;Laerm;60995;52.154;4.498;2023-08-20T05:18:22;42.80;35.90;53.83;;
72415;Laerm;60995;52.154;4.498;2023-08-20T05:20:40;43.94;35.97;53.54;;
72415;Laerm;60995;52.154;4.498;2023-08-20T05:22:56;44.85;36.24;65.34;;
72415;Laerm;60995;52.154;4.498;2023-08-20T05:25:12;43.89;36.41;57.88;;
72415;Laerm;60995;52.154;4.498;2023-08-20T05:27:29;45.54;36.25;58.27;;
72415;Laerm;60995;52.154;4.498;2023-08-20T05:29:45;44.36;36.29;59.02;;
72415;Laerm;60995;52.154;4.498;2023-08-20T05:32:02;44.23;36.68;52.12;;
72415;Laerm;60995;52.154;4.498;2023-08-20T05:34:18;44.74;36.91;55.38;;
72415;Laerm;60995;52.154;4.498;2023-08-20T05:36:34;44.55;38.17;56.75;;
72415;Laerm;60995;52.154;4.498;2023-08-20T05:38:50;46.00;36.34;58.10;;
72415;Laerm;60995;52.154;4.498;2023-08-20T05:41:07;46.32;37.23;59.91;;
72415;Laerm;60995;52.154;4.498;2023-08-20T05:43:23;44.15;37.62;52.76;;
72415;Laerm;60995;52.154;4.498;2023-08-20T05:45:39;44.17;38.32;53.61;;
72415;Laerm;60995;52.154;4.498;2023-08-20T05:47:55;45.97;37.66;59.36;;
72415;Laerm;60995;52.154;4.498;2023-08-20T05:50:12;49.82;41.55;66.63;;
72415;Laerm;60995;52.154;4.498;2023-08-20T05:52:28;46.42;36.70;60.31;;
72415;Laerm;60995;52.154;4.498;2023-08-20T05:54:44;44.37;36.80;56.20;;
72415;Laerm;60995;52.154;4.498;2023-08-20T05:57:00;49.61;37.44;63.31;;
72415;Laerm;60995;52.154;4.498;2023-08-20T05:59:17;44.74;36.41;60.11;;
72415;Laerm;60995;52.154;4.498;2023-08-20T06:01:34;42.50;36.37;51.74;;
72415;Laerm;60995;52.154;4.498;2023-08-20T06:03:50;43.42;35.90;52.04;;
72415;Laerm;60995;52.154;4.498;2023-08-20T06:06:06;44.24;36.64;58.29;;
72415;Laerm;60995;52.154;4.498;2023-08-20T06:08:23;46.95;35.96;57.62;;
72415;Laerm;60995;52.154;4.498;2023-08-20T06:10:39;45.77;36.11;54.87;;
72415;Laerm;60995;52.154;4.498;2023-08-20T06:12:55;44.70;35.24;59.57;;
72415;Laerm;60995;52.154;4.498;2023-08-20T06:15:14;50.85;34.78;62.91;;
72415;Laerm;60995;52.154;4.498;2023-08-20T06:17:30;46.49;34.61;55.46;;
72415;Laerm;60995;52.154;4.498;2023-08-20T06:19:47;45.05;34.34;58.14;;
72415;Laerm;60995;52.154;4.498;2023-08-20T06:22:03;52.32;35.21;62.82;;
72415;Laerm;60995;52.154;4.498;2023-08-20T06:24:19;50.74;35.12;62.00;;
72415;Laerm;60995;52.154;4.498;2023-08-20T06:26:36;45.95;34.25;57.67;;
72415;Laerm;60995;52.154;4.498;2023-08-20T06:28:52;51.50;35.03;65.33;;
72415;Laerm;60995;52.154;4.498;2023-08-20T06:31:08;54.76;36.01;68.12;;
72415;Laerm;60995;52.154;4.498;2023-08-20T06:33:24;46.79;34.76;58.93;;
72415;Laerm;60995;52.154;4.498;2023-08-20T06:35:41;48.51;34.27;59.06;;
72415;Laerm;60995;52.154;4.498;2023-08-20T06:37:58;47.38;34.35;59.77;;
72415;Laerm;60995;52.154;4.498;2023-08-20T06:40:14;48.62;34.52;60.00;;
72415;Laerm;60995;52.154;4.498;2023-08-20T06:42:30;48.39;34.82;60.11;;
72415;Laerm;60995;52.154;4.498;2023-08-20T06:44:47;49.92;35.02;59.87;;
72415;Laerm;60995;52.154;4.498;2023-08-20T06:47:03;50.38;34.74;61.78;;
72415;Laerm;60995;52.154;4.498;2023-08-20T06:49:19;49.77;34.79;59.69;;
72415;Laerm;60995;52.154;4.498;2023-08-20T06:51:35;49.62;35.54;60.14;;
72415;Laerm;60995;52.154;4.498;2023-08-20T06:53:52;49.00;34.31;60.21;;
72415;Laerm;60995;52.154;4.498;2023-08-20T06:56:08;48.67;35.46;60.42;;
72415;Laerm;60995;52.154;4.498;2023-08-20T06:58:25;49.98;35.57;64.80;;
72415;Laerm;60995;52.154;4.498;2023-08-20T07:00:41;49.19;36.66;60.73;;
72415;Laerm;60995;52.154;4.498;2023-08-20T07:02:57;49.53;35.02;61.27;;
72415;Laerm;60995;52.154;4.498;2023-08-20T07:05:13;50.22;34.70;73.78;;
72415;Laerm;60995;52.154;4.498;2023-08-20T07:07:31;49.16;35.03;63.13;;
72415;Laerm;60995;52.154;4.498;2023-08-20T07:09:47;48.85;35.61;60.71;;
72415;Laerm;60995;52.154;4.498;2023-08-20T07:12:04;49.12;35.41;60.49;;
72415;Laerm;60995;52.154;4.498;2023-08-20T07:14:20;49.43;35.92;60.26;;
72415;Laerm;60995;52.154;4.498;2023-08-20T07:16:36;49.89;34.90;61.11;;
72415;Laerm;60995;52.154;4.498;2023-08-20T07:18:52;50.34;36.65;61.99;;
72415;Laerm;60995;52.154;4.498;2023-08-20T07:21:09;53.08;36.22;65.58;;
72415;Laerm;60995;52.154;4.498;2023-08-20T07:23:25;49.19;36.11;61.10;;
72415;Laerm;60995;52.154;4.498;2023-08-20T07:25:41;49.31;36.14;61.30;;
72415;Laerm;60995;52.154;4.498;2023-08-20T07:27:57;48.97;35.50;61.13;;
72415;Laerm;60995;52.154;4.498;2023-08-20T07:30:15;49.14;35.30;62.30;;
72415;Laerm;60995;52.154;4.498;2023-08-20T07:32:31;49.58;37.58;60.66;;
72415;Laerm;60995;52.154;4.498;2023-08-20T07:34:47;50.45;38.59;62.04;;
72415;Laerm;60995;52.154;4.498;2023-08-20T07:37:04;50.38;36.93;60.94;;
72415;Laerm;60995;52.154;4.498;2023-08-20T07:39:21;50.07;38.08;61.29;;
72415;Laerm;60995;52.154;4.498;2023-08-20T07:41:37;50.17;36.67;61.75;;
72415;Laerm;60995;52.154;4.498;2023-08-20T07:43:53;49.81;37.07;61.88;;
72415;Laerm;60995;52.154;4.498;2023-08-20T07:46:10;50.22;37.28;71.36;;
72415;Laerm;60995;52.154;4.498;2023-08-20T07:48:26;49.70;36.41;64.82;;
72415;Laerm;60995;52.154;4.498;2023-08-20T07:50:42;51.52;40.07;66.80;;
72415;Laerm;60995;52.154;4.498;2023-08-20T07:52:58;51.40;38.29;63.24;;
72415;Laerm;60995;52.154;4.498;2023-08-20T07:55:15;50.62;37.00;61.77;;
72415;Laerm;60995;52.154;4.498;2023-08-20T07:57:32;50.94;37.25;63.11;;
72415;Laerm;60995;52.154;4.498;2023-08-20T07:59:49;50.65;36.44;62.43;;
72415;Laerm;60995;52.154;4.498;2023-08-20T08:02:05;49.81;36.17;61.83;;
72415;Laerm;60995;52.154;4.498;2023-08-20T08:04:21;50.68;35.94;62.64;;
72415;Laerm;60995;52.154;4.498;2023-08-20T08:06:38;50.00;36.72;62.32;;
72415;Laerm;60995;52.154;4.498;2023-08-20T08:08:54;49.98;35.73;61.86;;
72415;Laerm;60995;52.154;4.498;2023-08-20T08:11:10;50.18;36.24;63.41;;
72415;Laerm;60995;52.154;4.498;2023-08-20T08:13:27;49.82;36.15;63.45;;
72415;Laerm;60995;52.154;4.498;2023-08-20T08:15:43;49.70;36.89;61.42;;
72415;Laerm;60995;52.154;4.498;2023-08-20T08:17:59;50.96;40.39;61.18;;
72415;Laerm;60995;52.154;4.498;2023-08-20T08:20:15;51.37;40.26;62.40;;
72415;Laerm;60995;52.154;4.498;2023-08-20T08:22:32;50.61;38.90;64.48;;
72415;Laerm;60995;52.154;4.498;2023-08-20T08:24:48;49.72;36.97;61.16;;
72415;Laerm;60995;52.154;4.498;2023-08-20T08:27:04;50.65;37.92;70.52;;
72415;Laerm;60995;52.154;4.498;2023-08-20T08:29:21;49.81;37.01;63.83;;
72415;Laerm;60995;52.154;4.498;2023-08-20T08:31:37;49.89;36.46;61.44;;
72415;Laerm;60995;52.154;4.498;2023-08-20T08:33:53;50.41;37.42;60.76;;
72415;Laerm;60995;52.154;4.498;2023-08-20T08:36:09;49.70;35.95;61.30;;
72415;Laerm;60995;52.154;4.498;2023-08-20T08:38:27;50.01;35.86;62.65;;
72415;Laerm;60995;52.154;4.498;2023-08-20T08:40:43;52.10;35.92;64.37;;
72415;Laerm;60995;52.154;4.498;2023-08-20T08:43:00;50.53;36.56;62.84;;
72415;Laerm;60995;52.154;4.498;2023-08-20T08:45:18;50.02;36.04;62.27;;
72415;Laerm;60995;52.154;4.498;2023-08-20T08:47:39;51.13;37.99;61.76;;
72415;Laerm;60995;52.154;4.498;2023-08-20T08:49:56;50.75;38.66;64.12;;
72415;Laerm;60995;52.154;4.498;2023-08-20T08:52:13;49.89;37.58;62.07;;
72415;Laerm;60995;52.154;4.498;2023-08-20T08:54:32;50.70;39.13;61.68;;
72415;Laerm;60995;52.154;4.498;2023-08-20T08:56:50;50.78;39.46;62.09;;
72415;Laerm;60995;52.154;4.498;2023-08-20T08:59:06;63.89;38.69;79.08;;
72415;Laerm;60995;52.154;4.498;2023-08-20T09:01:23;50.07;36.80;62.21;;
72415;Laerm;60995;52.154;4.498;2023-08-20T09:03:39;50.14;37.74;61.25;;
72415;Laerm;60995;52.154;4.498;2023-08-20T09:05:58;50.16;37.17;61.28;;
72415;Laerm;60995;52.154;4.498;2023-08-20T09:08:21;52.02;39.84;64.22;;
72415;Laerm;60995;52.154;4.498;2023-08-20T09:10:37;50.31;37.50;62.12;;
72415;Laerm;60995;52.154;4.498;2023-08-20T09:12:55;50.49;38.33;65.61;;
72415;Laerm;60995;52.154;4.498;2023-08-20T09:15:13;49.61;37.75;62.62;;
72415;Laerm;60995;52.154;4.498;2023-08-20T09:17:29;50.09;36.69;61.61;;
72415;Laerm;60995;52.154;4.498;2023-08-20T09:19:46;49.75;37.98;61.13;;
72415;Laerm;60995;52.154;4.498;2023-08-20T09:22:03;49.71;37.71;61.86;;
72415;Laerm;60995;52.154;4.498;2023-08-20T09:24:33;49.16;37.04;60.74;;
72415;Laerm;60995;52.154;4.498;2023-08-20T09:26:57;49.91;37.09;61.11;;
72415;Laerm;60995;52.154;4.498;2023-08-20T09:29:15;51.03;39.15;60.64;;
72415;Laerm;60995;52.154;4.498;2023-08-20T09:31:39;52.44;39.07;66.35;;
72415;Laerm;60995;52.154;4.498;2023-08-20T09:33:55;52.39;38.55;63.44;;
72415;Laerm;60995;52.154;4.498;2023-08-20T09:36:13;50.59;36.38;61.11;;
72415;Laerm;60995;52.154;4.498;2023-08-20T09:38:29;50.54;38.29;62.38;;
72415;Laerm;60995;52.154;4.498;2023-08-20T09:40:52;50.46;36.49;66.65;;
72415;Laerm;60995;52.154;4.498;2023-08-20T09:43:10;49.96;37.03;61.50;;
72415;Laerm;60995;52.154;4.498;2023-08-20T09:45:28;50.66;38.53;62.30;;
72415;Laerm;60995;52.154;4.498;2023-08-20T09:47:48;51.98;40.20;62.30;;
72415;Laerm;60995;52.154;4.498;2023-08-20T09:50:11;50.35;38.48;61.81;;
72415;Laerm;60995;52.154;4.498;2023-08-20T09:52:39;50.28;38.61;61.91;;
72415;Laerm;60995;52.154;4.498;2023-08-20T09:55:21;49.51;37.96;62.08;;
72415;Laerm;60995;52.154;4.498;2023-08-20T09:57:40;50.01;38.23;61.17;;
72415;Laerm;60995;52.154;4.498;2023-08-20T09:59:58;50.24;37.09;64.31;;
72415;Laerm;60995;52.154;4.498;2023-08-20T10:02:16;50.41;37.03;61.05;;
72415;Laerm;60995;52.154;4.498;2023-08-20T10:04:33;50.69;37.38;72.32;;
72415;Laerm;60995;52.154;4.498;2023-08-20T10:06:52;50.93;37.68;61.55;;
72415;Laerm;60995;52.154;4.498;2023-08-20T10:09:09;52.28;36.34;66.57;;
72415;Laerm;60995;52.154;4.498;2023-08-20T10:11:26;50.50;36.66;62.59;;
72415;Laerm;60995;52.154;4.498;2023-08-20T10:13:43;51.36;41.17;61.48;;
72415;Laerm;60995;52.154;4.498;2023-08-20T10:16:00;51.16;38.46;62.73;;
72415;Laerm;60995;52.154;4.498;2023-08-20T10:18:19;50.50;37.20;62.03;;
72415;Laerm;60995;52.154;4.498;2023-08-20T10:20:38;52.11;39.17;76.75;;
72415;Laerm;60995;52.154;4.498;2023-08-20T10:23:02;51.67;38.91;65.92;;
72415;Laerm;60995;52.154;4.498;2023-08-20T10:25:24;52.70;37.96;71.18;;
72415;Laerm;60995;52.154;4.498;2023-08-20T10:27:41;54.34;36.59;77.36;;
72415;Laerm;60995;52.154;4.498;2023-08-20T10:30:03;52.24;37.05;68.18;;
72415;Laerm;60995;52.154;4.498;2023-08-20T10:32:50;53.32;38.24;68.27;;
72415;Laerm;60995;52.154;4.498;2023-08-20T10:35:06;53.41;37.69;72.74;;
72415;Laerm;60995;52.154;4.498;2023-08-20T10:37:28;50.83;37.08;65.10;;
72415;Laerm;60995;52.154;4.498;2023-08-20T10:39:54;50.66;37.83;64.13;;
72415;Laerm;60995;52.154;4.498;2023-08-20T10:45:09;50.55;37.60;64.76;;
72415;Laerm;60995;52.154;4.498;2023-08-20T10:47:35;53.33;38.30;73.93;;
72415;Laerm;60995;52.154;4.498;2023-08-20T10:49:53;50.53;39.60;61.95;;
72415;Laerm;60995;52.154;4.498;2023-08-20T10:52:10;50.01;38.03;61.15;;
72415;Laerm;60995;52.154;4.498;2023-08-20T10:54:26;50.53;38.17;61.89;;
72415;Laerm;60995;52.154;4.498;2023-08-20T10:56:48;54.66;39.67;63.76;;
72415;Laerm;60995;52.154;4.498;2023-08-20T10:59:22;52.56;36.41;61.42;;
72415;Laerm;60995;52.154;4.498;2023-08-20T11:01:39;50.17;36.87;61.35;;
72415;Laerm;60995;52.154;4.498;2023-08-20T11:03:56;50.13;37.97;61.33;;
72415;Laerm;60995;52.154;4.498;2023-08-20T11:06:12;50.86;38.71;67.81;;
72415;Laerm;60995;52.154;4.498;2023-08-20T11:08:29;51.57;39.66;71.85;;
72415;Laerm;60995;52.154;4.498;2023-08-20T11:10:46;50.03;38.27;63.87;;
72415;Laerm;60995;52.154;4.498;2023-08-20T11:13:02;52.27;37.26;65.98;;
72415;Laerm;60995;52.154;4.498;2023-08-20T11:15:19;53.60;36.68;69.04;;
72415;Laerm;60995;52.154;4.498;2023-08-20T11:17:46;50.23;37.80;61.28;;
72415;Laerm;60995;52.154;4.498;2023-08-20T11:20:03;50.67;37.93;61.27;;
72415;Laerm;60995;52.154;4.498;2023-08-20T11:22:21;53.07;37.96;63.98;;
72415;Laerm;60995;52.154;4.498;2023-08-20T11:24:37;49.30;35.81;61.70;;
72415;Laerm;60995;52.154;4.498;2023-08-20T11:26:55;50.34;37.21;60.94;;
72415;Laerm;60995;52.154;4.498;2023-08-20T11:29:16;49.79;36.37;61.50;;
72415;Laerm;60995;52.154;4.498;2023-08-20T11:31:36;50.12;36.77;62.43;;
72415;Laerm;60995;52.154;4.498;2023-08-20T11:33:53;50.32;35.54;61.76;;
72415;Laerm;60995;52.154;4.498;2023-08-20T11:36:09;50.24;37.71;61.85;;
72415;Laerm;60995;52.154;4.498;2023-08-20T11:38:26;51.54;36.28;61.37;;
72415;Laerm;60995;52.154;4.498;2023-08-20T11:40:43;51.36;37.36;65.34;;
72415;Laerm;60995;52.154;4.498;2023-08-20T11:42:59;50.73;36.07;61.54;;
72415;Laerm;60995;52.154;4.498;2023-08-20T11:45:16;49.82;36.73;61.62;;
72415;Laerm;60995;52.154;4.498;2023-08-20T11:47:40;51.79;38.06;64.66;;
72415;Laerm;60995;52.154;4.498;2023-08-20T11:50:04;50.37;37.94;63.64;;
72415;Laerm;60995;52.154;4.498;2023-08-20T11:52:21;52.98;38.83;69.88;;
72415;Laerm;60995;52.154;4.498;2023-08-20T11:54:39;53.25;38.56;67.74;;
72415;Laerm;60995;52.154;4.498;2023-08-20T11:57:03;50.42;38.64;61.49;;
72415;Laerm;60995;52.154;4.498;2023-08-20T11:59:21;50.24;36.83;60.28;;
72415;Laerm;60995;52.154;4.498;2023-08-20T12:01:37;52.27;38.25;65.62;;
72415;Laerm;60995;52.154;4.498;2023-08-20T12:04:03;50.66;36.87;62.09;;
72415;Laerm;60995;52.154;4.498;2023-08-20T12:06:21;49.99;37.64;60.46;;
72415;Laerm;60995;52.154;4.498;2023-08-20T12:08:44;50.15;38.65;61.15;;
72415;Laerm;60995;52.154;4.498;2023-08-20T12:11:01;50.07;37.13;61.98;;
72415;Laerm;60995;52.154;4.498;2023-08-20T12:13:19;50.75;39.64;62.38;;
72415;Laerm;60995;52.154;4.498;2023-08-20T12:15:35;54.81;38.16;67.27;;
72415;Laerm;60995;52.154;4.498;2023-08-20T12:18:03;52.67;39.85;61.47;;
72415;Laerm;60995;52.154;4.498;2023-08-20T12:20:22;61.66;38.32;78.18;;
72415;Laerm;60995;52.154;4.498;2023-08-20T12:22:39;51.40;38.13;69.95;;
72415;Laerm;60995;52.154;4.498;2023-08-20T12:24:55;50.29;40.19;60.50;;
72415;Laerm;60995;52.154;4.498;2023-08-20T12:27:13;49.57;37.54;60.30;;
72415;Laerm;60995;52.154;4.498;2023-08-20T12:29:29;49.32;37.27;60.30;;
72415;Laerm;60995;52.154;4.498;2023-08-20T12:31:46;49.57;37.68;60.62;;
72415;Laerm;60995;52.154;4.498;2023-08-20T12:34:02;52.22;40.05;69.37;;
72415;Laerm;60995;52.154;4.498;2023-08-20T12:36:19;60.71;37.44;78.53;;
72415;Laerm;60995;52.154;4.498;2023-08-20T12:38:35;50.08;39.85;60.49;;
72415;Laerm;60995;52.154;4.498;2023-08-20T12:40:51;51.25;39.07;72.23;;
72415;Laerm;60995;52.154;4.498;2023-08-20T12:43:08;48.77;36.76;59.33;;
72415;Laerm;60995;52.154;4.498;2023-08-20T12:45:24;51.66;38.86;65.68;;
72415;Laerm;60995;52.154;4.498;2023-08-20T12:47:40;51.26;39.39;69.89;;
72415;Laerm;60995;52.154;4.498;2023-08-20T12:49:57;49.85;40.02;64.57;;
72415;Laerm;60995;52.154;4.498;2023-08-20T12:52:13;50.83;39.92;64.16;;
72415;Laerm;60995;52.154;4.498;2023-08-20T12:54:29;48.02;37.96;62.49;;
72415;Laerm;60995;52.154;4.498;2023-08-20T12:56:45;50.53;38.96;61.21;;
72415;Laerm;60995;52.154;4.498;2023-08-20T12:59:01;49.04;39.47;61.15;;